createdAt,value
2019-04-20T00:02:23.430Z,67.70
2019-04-20T00:04:52.299Z,67.90
2019-04-20T00:07:25.682Z,68.20
2019-04-20T00:10:01.380Z,68.40
2019-04-20T00:12:39.455Z,68.60
2019-04-20T00:14:58.587Z,68.80
2019-04-20T00:17:28.816Z,69.30
2019-04-20T00:19:59.384Z,69.70
2019-04-20T00:22:46.928Z,69.80
2019-04-20T00:25:42.923Z,70.10
2019-04-20T00:28:27.613Z,70.00
2019-04-20T00:30:55.086Z,70.40
2019-04-20T00:33:24.282Z,70.60
2019-04-20T00:35:42.069Z,70.90
2019-04-20T00:38:12.000Z,70.70
2019-04-20T00:40:41.855Z,70.70
2019-04-20T00:43:13.054Z,70.60
2019-04-20T00:45:48.196Z,70.80
2019-04-20T00:48:23.929Z,70.90
2019-04-20T00:50:59.324Z,71.10
2019-04-20T00:53:25.799Z,71.40
2019-04-20T00:55:48.736Z,71.70
2019-04-20T00:58:27.043Z,71.90
2019-04-20T01:01:13.042Z,71.80
2019-04-20T01:03:33.924Z,71.90
2019-04-20T01:06:34.115Z,72.00
2019-04-20T01:09:14.483Z,72.20
2019-04-20T01:11:47.847Z,72.00
2019-04-20T01:14:17.435Z,72.20
2019-04-20T01:16:54.469Z,72.30
2019-04-20T01:19:19.315Z,72.30
2019-04-20T01:21:58.191Z,72.50
2019-04-20T01:24:27.962Z,72.50
2019-04-20T01:26:55.962Z,72.70
2019-04-20T01:29:32.292Z,73.00
2019-04-20T01:32:09.016Z,73.40
2019-04-20T01:34:42.944Z,73.40
2019-04-20T01:37:14.727Z,73.60
2019-04-20T01:39:39.165Z,73.90
2019-04-20T01:42:02.367Z,73.90
2019-04-20T01:44:38.764Z,74.70
2019-04-20T01:47:06.356Z,74.30
2019-04-20T01:49:36.953Z,74.40
2019-04-20T01:52:16.045Z,74.70
2019-04-20T01:54:57.947Z,75.00
2019-04-20T01:57:38.666Z,75.10
2019-04-20T02:00:17.464Z,75.20
2019-04-20T02:02:56.698Z,75.30
2019-04-20T02:05:25.656Z,75.40
2019-04-20T02:07:55.046Z,75.60
2019-04-20T02:10:33.291Z,75.90
2019-04-20T02:12:59.862Z,76.10
2019-04-20T02:15:32.734Z,76.20
2019-04-20T02:18:13.916Z,76.50
2019-04-20T02:20:49.103Z,76.70
2019-04-20T02:23:16.264Z,77.20
2019-04-20T02:25:34.009Z,77.30
2019-04-20T02:28:22.729Z,77.40
2019-04-20T02:31:15.389Z,77.40
2019-04-20T02:33:42.838Z,77.60
2019-04-20T02:36:21.121Z,77.90
2019-04-20T02:41:49.741Z,78.10
2019-04-20T02:46:40.773Z,78.60
2019-04-20T02:49:26.343Z,78.90
2019-04-20T02:51:41.956Z,79.10
2019-04-20T02:54:15.017Z,79.20
2019-04-20T02:56:47.954Z,79.50
2019-04-20T02:59:42.281Z,79.70
2019-04-20T03:01:55.052Z,80.20
2019-04-20T03:03:59.783Z,80.20
2019-04-20T03:06:39.937Z,80.20
2019-04-20T03:09:21.370Z,80.40
2019-04-20T03:12:01.536Z,80.40
2019-04-20T03:14:17.693Z,80.60
2019-04-20T03:16:50.293Z,80.70
2019-04-20T03:19:22.337Z,80.60
2019-04-20T03:21:59.847Z,80.60
2019-04-20T03:24:35.380Z,80.80
2019-04-20T03:27:00.802Z,81.10
2019-04-20T03:29:52.538Z,81.20
2019-04-20T03:32:57.390Z,81.30
2019-04-20T03:35:08.064Z,81.30
2019-04-20T03:37:30.612Z,81.40
2019-04-20T03:39:52.942Z,81.60
2019-04-20T03:42:12.545Z,81.80
2019-04-20T03:44:50.483Z,81.70
2019-04-20T03:47:26.655Z,81.90
2019-04-20T03:50:07.333Z,82.10
2019-04-20T03:53:04.494Z,82.30
2019-04-20T03:55:47.530Z,82.40
2019-04-20T03:58:24.443Z,82.70
2019-04-20T04:01:14.734Z,82.90
2019-04-20T04:03:58.756Z,82.80
2019-04-20T04:06:17.856Z,83.60
2019-04-20T04:08:55.937Z,83.10
2019-04-20T04:11:32.670Z,83.40
2019-04-20T04:13:43.919Z,83.40
2019-04-20T04:16:18.141Z,83.60
2019-04-20T04:18:49.711Z,83.80
2019-04-20T04:21:29.040Z,84.00
2019-04-20T04:24:04.606Z,84.20
2019-04-20T04:26:34.943Z,84.20
2019-04-20T04:29:14.895Z,84.20
2019-04-20T04:31:50.764Z,84.20
2019-04-20T04:34:09.288Z,84.40
2019-04-20T04:36:44.213Z,84.60
2019-04-20T04:39:22.101Z,84.60
2019-04-20T04:41:59.476Z,84.60
2019-04-20T04:44:14.818Z,84.80
2019-04-20T04:46:33.951Z,85.00
2019-04-20T04:49:09.554Z,85.30
2019-04-20T04:51:44.650Z,85.30
2019-04-20T04:54:16.583Z,85.10
2019-04-20T04:56:38.048Z,85.40
2019-04-20T04:59:08.646Z,85.40
2019-04-20T05:02:09.583Z,85.20
2019-04-20T05:05:23.806Z,85.20
2019-04-20T05:08:18.809Z,85.10
2019-04-20T05:15:40.448Z,85.30
2019-04-20T05:23:21.132Z,84.50
2019-04-20T05:27:13.469Z,84.30
2019-04-20T05:30:58.167Z,83.80
2019-04-20T05:33:42.346Z,83.30
2019-04-20T05:36:18.512Z,83.20
2019-04-20T05:38:54.383Z,82.90
2019-04-20T05:42:18.776Z,82.80
2019-04-20T05:44:55.700Z,82.80
2019-04-20T05:47:23.825Z,82.40
2019-04-20T05:49:53.861Z,82.20
2019-04-20T05:52:39.095Z,82.00
2019-04-20T05:54:58.252Z,81.90
2019-04-20T05:57:36.272Z,81.60
2019-04-20T06:00:21.470Z,81.30
2019-04-20T06:02:32.079Z,81.00
2019-04-20T06:05:08.499Z,80.80
2019-04-20T06:07:35.830Z,80.80
2019-04-20T06:10:14.109Z,81.40
2019-04-20T06:12:39.971Z,80.60
2019-04-20T06:15:42.090Z,81.10
2019-04-20T06:18:44.090Z,80.20
2019-04-20T06:21:24.991Z,79.80
2019-04-20T06:34:08.943Z,78.40
2019-04-20T06:36:32.186Z,78.00
2019-04-20T06:39:13.342Z,77.50
2019-04-20T06:41:58.650Z,77.10
2019-04-20T06:44:21.575Z,76.70
2019-04-20T06:46:54.200Z,76.50
2019-04-20T06:49:31.755Z,76.10
2019-04-20T06:52:15.466Z,75.80
2019-04-20T06:57:43.206Z,74.70
2019-04-20T07:03:17.780Z,73.70
2019-04-20T07:05:43.725Z,73.30
2019-04-20T07:08:28.967Z,73.10
2019-04-20T07:10:44.046Z,72.80
2019-04-20T07:13:07.955Z,72.30
2019-04-20T07:15:50.821Z,72.20
2019-04-20T07:18:36.811Z,71.70
2019-04-20T07:21:41.787Z,71.10
2019-04-20T07:24:10.643Z,71.20
2019-04-20T07:26:29.191Z,70.80
2019-04-20T07:29:00.435Z,70.10
2019-04-20T07:31:29.605Z,69.70
2019-04-20T07:34:04.646Z,69.40
2019-04-20T07:36:40.506Z,69.10
2019-04-20T07:39:08.959Z,68.70
2019-04-20T07:41:42.906Z,68.70
2019-04-20T07:44:10.380Z,68.40
2019-04-20T07:46:47.460Z,68.00
2019-04-20T07:49:08.659Z,67.60
2019-04-20T07:51:26.495Z,67.30
2019-04-20T07:54:19.408Z,67.10
2019-04-20T08:00:35.402Z,67.20
2019-04-20T08:03:23.643Z,66.80
2019-04-20T08:05:48.621Z,66.50
2019-04-20T08:08:37.662Z,66.30
2019-04-20T08:10:58.653Z,65.80
2019-04-20T08:13:39.000Z,65.50
2019-04-20T08:16:06.649Z,65.30
2019-04-20T08:18:45.828Z,65.50
2019-04-20T08:21:08.211Z,65.30
2019-04-20T08:23:40.212Z,64.80
2019-04-20T08:26:00.390Z,64.60
2019-04-20T08:28:35.872Z,64.30
2019-04-20T08:31:29.765Z,64.10
2019-04-20T08:34:22.227Z,64.10
2019-04-20T08:36:45.445Z,64.10
2019-04-20T08:39:30.531Z,63.60
2019-04-20T08:41:50.381Z,63.30
2019-04-20T08:44:42.938Z,63.40
2019-04-20T08:47:02.075Z,63.70
2019-04-20T08:49:25.117Z,63.40
2019-04-20T08:52:07.153Z,62.90
2019-04-20T08:54:21.988Z,62.80
2019-04-20T08:56:45.148Z,62.80
2019-04-20T08:59:09.371Z,62.80
2019-04-20T09:01:40.880Z,62.50
2019-04-20T09:04:22.281Z,62.10
2019-04-20T09:07:00.951Z,61.90
2019-04-20T09:09:47.616Z,61.20
2019-04-20T09:12:05.895Z,60.80
2019-04-20T09:14:22.087Z,60.40
2019-04-20T09:17:10.298Z,60.10
2019-04-20T09:19:46.790Z,58.90
2019-04-20T09:22:40.602Z,59.00
2019-04-20T09:25:42.736Z,58.30
2019-04-20T09:27:45.845Z,57.90
2019-04-20T09:30:26.769Z,57.70
2019-04-20T09:33:09.641Z,57.00
2019-04-20T09:35:39.137Z,56.80
2019-04-20T09:38:12.177Z,56.50
2019-04-20T09:40:47.086Z,56.20
2019-04-20T09:43:21.708Z,55.40
2019-04-20T09:45:56.919Z,54.70
2019-04-20T09:48:33.463Z,54.40
2019-04-20T09:51:18.084Z,54.10
2019-04-20T09:53:39.328Z,53.90
2019-04-20T09:56:18.263Z,53.30
2019-04-20T09:58:50.892Z,52.70
2019-04-20T10:01:13.157Z,52.30
2019-04-20T10:03:32.190Z,52.00
2019-04-20T10:06:03.318Z,51.00
2019-04-20T10:08:40.383Z,50.50
2019-04-20T10:11:05.691Z,49.50
2019-04-20T10:13:36.362Z,47.50
2019-04-20T10:16:06.265Z,46.50
2019-04-20T10:18:43.726Z,45.90
2019-04-20T10:21:07.801Z,45.30
2019-04-20T10:23:38.696Z,44.70
2019-04-20T10:26:08.897Z,43.80
2019-04-20T10:28:39.392Z,42.70
2019-04-20T10:31:10.571Z,42.20
2019-04-20T10:33:41.749Z,41.70
2019-04-20T10:36:23.633Z,41.10
2019-04-20T10:38:54.780Z,40.80
2019-04-20T10:41:36.049Z,41.00
2019-04-20T10:43:56.708Z,41.00
2019-04-20T10:46:26.951Z,40.00
2019-04-20T10:49:01.236Z,40.30
2019-04-20T10:51:29.480Z,40.60
2019-04-20T10:54:00.447Z,40.00
2019-04-20T11:03:34.694Z,39.70
2019-04-20T11:06:04.997Z,39.20
2019-04-20T11:08:34.985Z,39.20
2019-04-20T11:11:13.013Z,39.40
2019-04-20T11:13:37.449Z,39.60
2019-04-20T11:16:08.524Z,39.50
2019-04-20T11:18:39.745Z,39.50
2019-04-20T11:21:09.609Z,39.20
2019-04-20T11:23:40.401Z,39.40
2019-04-20T11:26:10.565Z,37.80
2019-04-20T11:28:40.470Z,37.80
2019-04-20T11:31:10.386Z,37.70
2019-04-20T11:33:40.605Z,37.50
2019-04-20T11:36:10.562Z,37.40
2019-04-20T11:38:40.817Z,37.00
2019-04-20T11:41:18.097Z,36.70
2019-04-20T11:43:42.283Z,36.70
2019-04-20T11:46:12.408Z,36.20
2019-04-20T11:48:43.515Z,35.90
2019-04-20T11:51:13.824Z,34.90
2019-04-20T11:53:43.953Z,34.40
2019-04-20T11:56:20.369Z,34.00
2019-04-20T11:58:46.948Z,33.80
2019-04-20T12:01:57.497Z,33.70
2019-04-20T12:04:41.054Z,34.30
2019-04-20T12:07:04.642Z,33.50
2019-04-20T12:09:35.518Z,33.30
2019-04-20T12:12:17.886Z,32.90
2019-04-20T12:14:38.683Z,32.90
2019-04-20T12:17:08.669Z,33.00
2019-04-20T12:19:39.721Z,32.80
2019-04-20T12:22:09.738Z,32.80
2019-04-20T12:24:40.334Z,32.10
2019-04-20T12:27:10.293Z,32.10
2019-04-20T12:29:40.571Z,32.00
2019-04-20T12:32:10.785Z,31.70
2019-04-20T12:34:41.299Z,31.70
2019-04-20T12:37:11.313Z,31.60
2019-04-20T12:39:41.274Z,31.80
2019-04-20T12:42:11.273Z,31.50
2019-04-20T12:44:41.791Z,31.60
2019-04-20T12:47:12.041Z,31.80
2019-04-20T12:49:41.829Z,32.00
2019-04-20T12:52:12.469Z,31.70
2019-04-20T12:54:44.501Z,31.20
2019-04-20T12:57:14.519Z,31.00
2019-04-20T12:59:46.988Z,31.20
2019-04-20T13:02:15.858Z,30.80
2019-04-20T13:04:45.767Z,30.80
2019-04-20T13:07:15.682Z,31.00
2019-04-20T13:09:50.933Z,31.00
2019-04-20T13:12:36.476Z,30.80
2019-04-20T13:15:40.520Z,31.20
2019-04-20T13:18:11.546Z,31.10
2019-04-20T13:20:41.839Z,30.60
2019-04-20T13:23:13.015Z,30.10
2019-04-20T13:25:43.316Z,30.00
2019-04-20T13:28:14.726Z,30.10
2019-04-20T13:30:45.913Z,30.30
2019-04-20T13:33:25.236Z,30.50
2019-04-20T13:35:56.311Z,30.20
2019-04-20T13:38:26.286Z,30.20
2019-04-20T13:40:56.198Z,30.00
2019-04-20T13:43:25.904Z,30.20
2019-04-20T13:45:56.937Z,29.90
2019-04-20T13:48:27.220Z,29.60
2019-04-20T13:50:58.244Z,29.40
2019-04-20T13:53:29.297Z,31.10
2019-04-20T13:55:59.809Z,30.50
2019-04-20T13:58:47.795Z,29.70
2019-04-20T14:01:48.563Z,30.00
2019-04-20T14:04:30.705Z,29.80
2019-04-20T14:07:01.722Z,29.50
2019-04-20T14:09:33.144Z,29.70
2019-04-20T14:12:13.852Z,29.60
2019-04-20T14:14:35.092Z,29.60
2019-04-20T14:17:05.415Z,29.60
2019-04-20T14:19:36.659Z,29.60
2019-04-20T14:22:08.188Z,29.70
2019-04-20T14:24:39.086Z,29.60
2019-04-20T14:27:10.805Z,29.40
2019-04-20T14:29:41.152Z,29.20
2019-04-20T14:32:12.035Z,29.10
2019-04-20T14:34:42.945Z,29.00
2019-04-20T14:37:13.314Z,29.10
2019-04-20T14:39:43.588Z,29.10
2019-04-20T14:42:23.231Z,28.90
2019-04-20T14:44:45.943Z,28.70
2019-04-20T14:47:16.043Z,28.90
2019-04-20T14:49:46.544Z,28.70
2019-04-20T14:52:17.653Z,28.70
2019-04-20T14:54:47.834Z,29.00
2019-04-20T14:57:19.198Z,28.50
2019-04-20T14:59:53.792Z,28.40
2019-04-20T15:02:27.920Z,28.20
2019-04-20T15:04:58.999Z,28.70
2019-04-20T15:07:28.985Z,28.40
2019-04-20T15:09:58.772Z,28.30
2019-04-20T15:12:38.760Z,28.40
2019-04-20T15:15:00.737Z,28.50
2019-04-20T15:17:48.133Z,28.40
2019-04-20T15:20:39.772Z,28.20
2019-04-20T15:23:17.719Z,28.00
2019-04-20T15:25:48.647Z,28.00
2019-04-20T15:28:18.696Z,27.90
2019-04-20T15:30:49.977Z,27.90
2019-04-20T15:33:21.043Z,28.00
2019-04-20T15:35:52.390Z,28.10
2019-04-20T15:38:22.968Z,28.20
2019-04-20T15:40:53.334Z,28.30
2019-04-20T15:43:27.459Z,28.30
2019-04-20T15:45:55.210Z,28.30
2019-04-20T15:48:25.967Z,28.40
2019-04-20T15:50:56.199Z,28.50
2019-04-20T15:53:26.027Z,28.30
2019-04-20T15:55:57.480Z,28.20
2019-04-20T15:58:28.227Z,28.10
2019-04-20T16:00:58.919Z,28.20
2019-04-20T16:03:41.280Z,28.40
2019-04-20T16:06:13.427Z,29.00
2019-04-20T16:08:48.253Z,28.70
2019-04-20T16:11:19.348Z,28.80
2019-04-20T16:13:53.368Z,28.70
2019-04-20T16:16:21.665Z,28.80
2019-04-20T16:18:52.790Z,29.00
2019-04-20T16:21:28.488Z,28.80
2019-04-20T16:24:10.895Z,28.80
2019-04-20T16:30:21.387Z,28.60
2019-04-20T16:32:52.470Z,28.60
2019-04-20T16:35:22.594Z,28.70
2019-04-20T16:37:52.738Z,28.90
2019-04-20T16:40:23.458Z,29.10
2019-04-20T16:42:54.341Z,29.40
2019-04-20T16:45:25.328Z,29.20
2019-04-20T16:47:55.235Z,29.20
2019-04-20T16:50:25.011Z,29.40
2019-04-20T16:52:55.108Z,29.60
2019-04-20T16:55:25.150Z,29.90
2019-04-20T16:57:55.581Z,30.00
2019-04-20T17:00:25.780Z,30.10
2019-04-20T17:02:56.275Z,30.20
2019-04-20T17:05:27.518Z,30.30
2019-04-20T17:07:57.711Z,30.50
2019-04-20T17:10:28.870Z,30.40
2019-04-20T17:13:04.084Z,30.50
2019-04-20T17:15:55.433Z,30.70
2019-04-20T17:18:25.779Z,30.90
2019-04-20T17:20:56.759Z,31.30
2019-04-20T17:23:27.642Z,31.40
2019-04-20T17:25:57.929Z,31.70
2019-04-20T17:28:46.935Z,31.80
2019-04-20T17:31:25.238Z,32.00
2019-04-20T17:34:25.298Z,32.30
2019-04-20T17:36:40.280Z,32.40
2019-04-20T17:39:12.524Z,32.60
2019-04-20T17:42:01.844Z,32.80
2019-04-20T17:44:28.579Z,33.10
2019-04-20T17:46:59.413Z,32.70
2019-04-20T17:49:38.067Z,32.50
2019-04-20T17:52:37.331Z,32.70
2019-04-20T17:54:49.498Z,33.10
2019-04-20T17:57:23.484Z,33.20
2019-04-20T18:00:11.646Z,33.60
2019-04-20T18:03:08.340Z,34.00
2019-04-20T18:06:06.123Z,34.30
2019-04-20T18:08:45.533Z,34.60
2019-04-20T18:14:42.875Z,35.40
2019-04-20T18:17:40.616Z,35.90
2019-04-20T18:20:36.666Z,36.30
2019-04-20T18:23:28.144Z,36.50
2019-04-20T18:26:30.650Z,36.70
2019-04-20T18:29:13.459Z,37.00
2019-04-20T18:32:07.330Z,37.20
2019-04-20T18:35:08.245Z,37.50
2019-04-20T18:38:00.828Z,37.80
2019-04-20T18:40:44.491Z,38.10
2019-04-20T18:43:58.613Z,38.40
2019-04-20T18:46:55.548Z,39.30
2019-04-20T18:49:23.870Z,38.60
2019-04-20T18:51:49.130Z,38.90
2019-04-20T18:54:32.209Z,39.20
2019-04-20T19:00:53.376Z,39.80
2019-04-20T19:03:35.671Z,40.00
2019-04-20T19:06:08.974Z,40.20
2019-04-20T19:08:51.839Z,40.50
2019-04-20T19:15:30.515Z,40.80
2019-04-20T19:18:04.309Z,41.20
2019-04-20T19:20:41.714Z,41.40
2019-04-20T19:23:11.876Z,41.60
2019-04-20T19:25:42.833Z,41.80
2019-04-20T19:28:14.479Z,42.00
2019-04-20T19:31:00.003Z,42.30
2019-04-20T19:33:31.201Z,43.30
2019-04-20T19:35:57.347Z,42.80
2019-04-20T19:38:25.582Z,43.00
2019-04-20T19:41:01.719Z,43.30
2019-04-20T19:43:31.689Z,43.50
2019-04-20T19:46:35.346Z,43.90
2019-04-20T19:48:39.318Z,43.80
2019-04-20T19:51:22.498Z,44.10
2019-04-20T19:53:48.829Z,44.50
2019-04-20T19:56:10.789Z,44.70
2019-04-20T19:58:45.640Z,44.90
2019-04-20T20:01:05.299Z,45.10
2019-04-20T20:03:35.686Z,45.80
2019-04-20T20:06:06.118Z,45.80
2019-04-20T20:08:40.001Z,45.90
2019-04-20T20:11:16.890Z,46.00
2019-04-20T20:13:46.212Z,46.40
2019-04-20T20:16:20.316Z,46.40
2019-04-20T20:18:55.779Z,46.80
2019-04-20T20:21:25.473Z,47.10
2019-04-20T20:23:47.892Z,47.00
2019-04-20T20:26:23.177Z,47.30
2019-04-20T20:29:03.907Z,47.60
2019-04-20T20:31:33.440Z,47.50
2019-04-20T20:34:02.925Z,47.90
2019-04-20T20:36:30.939Z,48.00
2019-04-20T20:39:04.665Z,48.10
2019-04-20T20:41:31.978Z,48.40
2019-04-20T20:44:07.016Z,48.40
2019-04-20T20:46:37.925Z,48.90
2019-04-20T20:49:16.650Z,48.90
2019-04-20T20:51:58.954Z,49.30
2019-04-20T20:54:15.500Z,49.10
2019-04-20T20:56:46.765Z,49.30
2019-04-20T20:59:14.010Z,49.60
2019-04-20T21:01:48.546Z,49.50
2019-04-20T21:04:12.088Z,49.80
2019-04-20T21:06:42.604Z,49.70
2019-04-20T21:09:12.764Z,50.10
2019-04-20T21:11:42.710Z,50.20
2019-04-20T21:17:39.285Z,50.10
2019-04-20T21:20:15.658Z,49.90
2019-04-20T21:22:53.444Z,50.20
2019-04-20T21:25:07.158Z,50.50
2019-04-20T21:27:38.970Z,50.40
2019-04-20T21:30:17.120Z,51.00
2019-04-20T21:32:45.708Z,50.80
2019-04-20T21:35:15.615Z,51.10
2019-04-20T21:37:52.558Z,51.30
2019-04-20T21:40:25.100Z,51.30
2019-04-20T21:42:53.519Z,51.70
2019-04-20T21:45:23.601Z,51.80
2019-04-20T21:47:50.277Z,52.00
2019-04-20T21:50:35.856Z,52.00
2019-04-20T21:52:55.139Z,52.20
2019-04-20T21:55:23.773Z,52.20
2019-04-20T21:57:57.353Z,52.30
2019-04-20T22:00:46.013Z,52.50
2019-04-20T22:03:16.925Z,52.60
2019-04-20T22:05:46.798Z,52.90
2019-04-20T22:08:19.232Z,53.20
2019-04-20T22:10:50.046Z,54.20
2019-04-20T22:13:28.161Z,53.60
2019-04-20T22:15:58.544Z,53.80
2019-04-20T22:18:25.388Z,53.90
2019-04-20T22:21:08.143Z,54.10
2019-04-20T22:23:43.412Z,54.40
2019-04-20T22:26:11.975Z,54.70
2019-04-20T22:28:31.932Z,54.90
2019-04-20T22:31:02.238Z,54.80
2019-04-20T22:33:39.968Z,55.10
2019-04-20T22:36:10.784Z,55.40
2019-04-20T22:39:05.423Z,55.60
2019-04-20T22:41:40.680Z,55.90
2019-04-20T22:47:53.857Z,56.40
2019-04-20T22:50:40.124Z,56.60
2019-04-20T22:53:14.081Z,57.00
2019-04-20T22:55:48.821Z,57.30
2019-04-20T22:58:03.621Z,57.70
2019-04-20T23:00:40.715Z,58.00
2019-04-20T23:03:02.885Z,58.00
2019-04-20T23:05:33.044Z,58.00
2019-04-20T23:08:04.491Z,58.10
2019-04-20T23:10:39.037Z,58.40
2019-04-20T23:13:07.384Z,58.70
2019-04-20T23:15:38.374Z,59.00
2019-04-20T23:18:08.386Z,59.20
2019-04-20T23:20:40.691Z,59.30
2019-04-20T23:23:11.064Z,59.60
2019-04-20T23:25:41.386Z,59.90
2019-04-20T23:28:14.793Z,60.30
2019-04-20T23:30:44.005Z,60.40
2019-04-20T23:33:15.836Z,60.80
2019-04-20T23:35:49.881Z,61.00
2019-04-20T23:38:21.079Z,61.00
2019-04-20T23:40:49.951Z,61.50
2019-04-20T23:43:28.226Z,61.40
2019-04-20T23:46:27.534Z,61.70
2019-04-20T23:49:19.970Z,61.90
2019-04-20T23:52:08.583Z,62.20
2019-04-20T23:54:20.977Z,62.50
2019-04-20T23:56:47.969Z,62.60
